sensor_id;sensor_type;location;lat;lon;timestamp;P1;durP1;ratioP1;P2;durP2;ratioP2
10230;SDS011;62604;49.432;8.680;2023-04-19T06:16:24;13.53;;;12.40;;
10230;SDS011;62604;49.432;8.680;2023-04-19T06:18:51;14.60;;;13.20;;
10230;SDS011;62604;49.432;8.680;2023-04-19T06:21:18;14.17;;;12.90;;
10230;SDS011;62604;49.432;8.680;2023-04-19T06:23:45;13.87;;;12.73;;
10230;SDS011;62604;49.432;8.680;2023-04-19T06:26:12;14.53;;;13.33;;
10230;SDS011;62604;49.432;8.680;2023-04-19T06:28:38;14.10;;;12.80;;
10230;SDS011;62604;49.432;8.680;2023-04-19T06:31:06;14.30;;;13.10;;
10230;SDS011;62604;49.432;8.680;2023-04-19T06:33:34;14.37;;;13.00;;
10230;SDS011;62604;49.432;8.680;2023-04-19T06:36:01;14.10;;;12.90;;
10230;SDS011;62604;49.432;8.680;2023-04-19T06:38:28;13.97;;;12.77;;
10230;SDS011;62604;49.432;8.680;2023-04-19T06:40:55;14.80;;;13.33;;
10230;SDS011;62604;49.432;8.680;2023-04-19T06:43:22;13.83;;;12.63;;
10230;SDS011;62604;49.432;8.680;2023-04-19T06:45:56;14.13;;;12.87;;
10230;SDS011;62604;49.432;8.680;2023-04-19T06:48:23;13.73;;;12.70;;
10230;SDS011;62604;49.432;8.680;2023-04-19T06:50:51;13.97;;;12.87;;
10230;SDS011;62604;49.432;8.680;2023-04-19T06:53:18;14.43;;;13.23;;
10230;SDS011;62604;49.432;8.680;2023-04-19T06:55:45;13.93;;;12.73;;
10230;SDS011;62604;49.432;8.680;2023-04-19T06:58:12;13.75;;;12.65;;
10230;SDS011;62604;49.432;8.680;2023-04-19T07:00:40;14.15;;;13.05;;
10230;SDS011;62604;49.432;8.680;2023-04-19T07:03:06;13.52;;;12.52;;
10230;SDS011;62604;49.432;8.680;2023-04-19T07:05:35;13.68;;;12.60;;
10230;SDS011;62604;49.432;8.680;2023-04-19T07:08:03;13.85;;;12.82;;
10230;SDS011;62604;49.432;8.680;2023-04-19T07:10:30;14.05;;;13.02;;
10230;SDS011;62604;49.432;8.680;2023-04-19T07:12:57;14.65;;;13.38;;
10230;SDS011;62604;49.432;8.680;2023-04-19T07:15:24;14.48;;;13.38;;
10230;SDS011;62604;49.432;8.680;2023-04-19T07:17:51;14.13;;;12.93;;
10230;SDS011;62604;49.432;8.680;2023-04-19T07:20:18;14.82;;;13.52;;
10230;SDS011;62604;49.432;8.680;2023-04-19T07:22:45;14.63;;;13.43;;
10230;SDS011;62604;49.432;8.680;2023-04-19T07:25:14;14.50;;;13.30;;
10230;SDS011;62604;49.432;8.680;2023-04-19T07:27:41;14.73;;;13.55;;
10230;SDS011;62604;49.432;8.680;2023-04-19T07:30:08;14.95;;;13.75;;
10230;SDS011;62604;49.432;8.680;2023-04-19T07:32:36;15.00;;;13.80;;
10230;SDS011;62604;49.432;8.680;2023-04-19T07:35:03;14.77;;;13.48;;
10230;SDS011;62604;49.432;8.680;2023-04-19T07:37:31;14.82;;;13.63;;
10230;SDS011;62604;49.432;8.680;2023-04-19T07:39:58;14.77;;;13.57;;
10230;SDS011;62604;49.432;8.680;2023-04-19T07:42:28;15.48;;;13.98;;
10230;SDS011;62604;49.432;8.680;2023-04-19T07:44:55;15.50;;;14.10;;
10230;SDS011;62604;49.432;8.680;2023-04-19T07:47:22;15.93;;;14.57;;
10230;SDS011;62604;49.432;8.680;2023-04-19T07:49:50;14.80;;;13.43;;
10230;SDS011;62604;49.432;8.680;2023-04-19T07:52:17;15.40;;;14.10;;
10230;SDS011;62604;49.432;8.680;2023-04-19T07:54:44;14.70;;;13.43;;
10230;SDS011;62604;49.432;8.680;2023-04-19T07:57:11;14.67;;;13.57;;
10230;SDS011;62604;49.432;8.680;2023-04-19T07:59:39;14.67;;;13.37;;
10230;SDS011;62604;49.432;8.680;2023-04-19T08:02:06;14.23;;;13.10;;
10230;SDS011;62604;49.432;8.680;2023-04-19T08:04:33;14.30;;;13.20;;
10230;SDS011;62604;49.432;8.680;2023-04-19T08:07:01;13.90;;;12.60;;
10230;SDS011;62604;49.432;8.680;2023-04-19T08:09:28;13.87;;;12.70;;
10230;SDS011;62604;49.432;8.680;2023-04-19T08:11:55;13.40;;;12.40;;
10230;SDS011;62604;49.432;8.680;2023-04-19T08:14:22;13.30;;;12.30;;
10230;SDS011;62604;49.432;8.680;2023-04-19T08:16:51;13.80;;;12.70;;
10230;SDS011;62604;49.432;8.680;2023-04-19T08:19:18;13.60;;;12.50;;
10230;SDS011;62604;49.432;8.680;2023-04-19T08:21:45;13.20;;;12.10;;
10230;SDS011;62604;49.432;8.680;2023-04-19T08:24:12;13.93;;;12.73;;
10230;SDS011;62604;49.432;8.680;2023-04-19T08:26:39;13.63;;;12.43;;
10230;SDS011;62604;49.432;8.680;2023-04-19T08:29:06;13.63;;;12.53;;
10230;SDS011;62604;49.432;8.680;2023-04-19T08:31:33;13.60;;;12.60;;
10230;SDS011;62604;49.432;8.680;2023-04-19T08:34:01;12.93;;;12.00;;
10230;SDS011;62604;49.432;8.680;2023-04-19T08:36:28;14.27;;;13.10;;
10230;SDS011;62604;49.432;8.680;2023-04-19T08:38:55;13.43;;;12.33;;
10230;SDS011;62604;49.432;8.680;2023-04-19T08:41:23;13.23;;;12.13;;
10230;SDS011;62604;49.432;8.680;2023-04-19T08:43:51;13.85;;;12.75;;
10230;SDS011;62604;49.432;8.680;2023-04-19T08:46:20;13.93;;;12.82;;
10230;SDS011;62604;49.432;8.680;2023-04-19T08:48:48;14.20;;;13.10;;
10230;SDS011;62604;49.432;8.680;2023-04-19T08:51:17;13.60;;;12.60;;
10230;SDS011;62604;49.432;8.680;2023-04-19T08:53:45;13.75;;;12.70;;
10230;SDS011;62604;49.432;8.680;2023-04-19T08:56:13;13.90;;;12.80;;
10230;SDS011;62604;49.432;8.680;2023-04-19T08:58:40;14.18;;;12.98;;
10230;SDS011;62604;49.432;8.680;2023-04-19T09:01:07;13.35;;;12.35;;
10230;SDS011;62604;49.432;8.680;2023-04-19T09:03:35;14.52;;;13.23;;
10230;SDS011;62604;49.432;8.680;2023-04-19T09:06:09;13.45;;;12.52;;
10230;SDS011;62604;49.432;8.680;2023-04-19T09:08:38;13.68;;;12.48;;
10230;SDS011;62604;49.432;8.680;2023-04-19T09:11:06;14.13;;;13.02;;
10230;SDS011;62604;49.432;8.680;2023-04-19T09:13:33;12.98;;;12.07;;
10230;SDS011;62604;49.432;8.680;2023-04-19T09:16:02;13.13;;;12.23;;
10230;SDS011;62604;49.432;8.680;2023-04-19T09:18:32;13.43;;;12.23;;
10230;SDS011;62604;49.432;8.680;2023-04-19T09:21:26;13.80;;;12.75;;
10230;SDS011;62604;49.432;8.680;2023-04-19T09:23:56;13.60;;;12.60;;
10230;SDS011;62604;49.432;8.680;2023-04-19T09:26:23;13.93;;;12.70;;
10230;SDS011;62604;49.432;8.680;2023-04-19T09:28:56;13.98;;;12.88;;
10230;SDS011;62604;49.432;8.680;2023-04-19T09:31:25;13.85;;;12.75;;
10230;SDS011;62604;49.432;8.680;2023-04-19T09:33:53;14.30;;;13.10;;
10230;SDS011;62604;49.432;8.680;2023-04-19T09:36:27;13.55;;;12.55;;
10230;SDS011;62604;49.432;8.680;2023-04-19T09:38:56;14.05;;;12.75;;
10230;SDS011;62604;49.432;8.680;2023-04-19T09:41:23;13.25;;;12.25;;
10230;SDS011;62604;49.432;8.680;2023-04-19T09:43:50;13.68;;;12.57;;
10230;SDS011;62604;49.432;8.680;2023-04-19T09:46:28;13.88;;;12.80;;
10230;SDS011;62604;49.432;8.680;2023-04-19T09:49:06;13.45;;;12.43;;
10230;SDS011;62604;49.432;8.680;2023-04-19T09:51:41;13.70;;;12.70;;
10230;SDS011;62604;49.432;8.680;2023-04-19T09:54:11;13.90;;;12.90;;
10230;SDS011;62604;49.432;8.680;2023-04-19T09:56:40;14.53;;;13.13;;
10230;SDS011;62604;49.432;8.680;2023-04-19T09:59:08;14.60;;;13.37;;
10230;SDS011;62604;49.432;8.680;2023-04-19T10:01:38;13.57;;;12.43;;
10230;SDS011;62604;49.432;8.680;2023-04-19T10:04:08;14.60;;;13.30;;
10230;SDS011;62604;49.432;8.680;2023-04-19T10:06:36;14.50;;;13.33;;
10230;SDS011;62604;49.432;8.680;2023-04-19T10:09:05;13.60;;;12.60;;
10230;SDS011;62604;49.432;8.680;2023-04-19T10:11:34;13.90;;;12.80;;
10230;SDS011;62604;49.432;8.680;2023-04-19T10:14:04;14.03;;;12.77;;
10230;SDS011;62604;49.432;8.680;2023-04-19T10:16:32;14.27;;;12.97;;
10230;SDS011;62604;49.432;8.680;2023-04-19T10:19:01;14.90;;;13.60;;
10230;SDS011;62604;49.432;8.680;2023-04-19T10:21:29;14.40;;;13.20;;
10230;SDS011;62604;49.432;8.680;2023-04-19T10:23:57;14.80;;;13.60;;
10230;SDS011;62604;49.432;8.680;2023-04-19T10:26:25;15.37;;;14.03;;
10230;SDS011;62604;49.432;8.680;2023-04-19T10:28:54;15.47;;;13.97;;
10230;SDS011;62604;49.432;8.680;2023-04-19T10:31:23;15.00;;;13.70;;
10230;SDS011;62604;49.432;8.680;2023-04-19T10:33:51;14.97;;;13.57;;
10230;SDS011;62604;49.432;8.680;2023-04-19T10:36:19;15.50;;;14.10;;
10230;SDS011;62604;49.432;8.680;2023-04-19T10:38:47;17.27;;;13.53;;
10230;SDS011;62604;49.432;8.680;2023-04-19T10:41:17;15.20;;;13.90;;
10230;SDS011;62604;49.432;8.680;2023-04-19T10:43:46;15.43;;;13.90;;
10230;SDS011;62604;49.432;8.680;2023-04-19T10:46:38;16.60;;;14.47;;
10230;SDS011;62604;49.432;8.680;2023-04-19T10:49:07;15.17;;;13.77;;
10230;SDS011;62604;49.432;8.680;2023-04-19T10:51:37;15.17;;;13.67;;
10230;SDS011;62604;49.432;8.680;2023-04-19T10:54:07;15.87;;;14.23;;
10230;SDS011;62604;49.432;8.680;2023-04-19T10:59:35;15.90;;;14.37;;
10230;SDS011;62604;49.432;8.680;2023-04-19T11:02:04;15.20;;;13.90;;
10230;SDS011;62604;49.432;8.680;2023-04-19T11:04:57;15.07;;;13.67;;
10230;SDS011;62604;49.432;8.680;2023-04-19T11:07:35;15.20;;;13.70;;
10230;SDS011;62604;49.432;8.680;2023-04-19T11:10:06;15.90;;;14.50;;
10230;SDS011;62604;49.432;8.680;2023-04-19T11:12:35;14.47;;;13.23;;
10230;SDS011;62604;49.432;8.680;2023-04-19T11:15:04;14.60;;;13.30;;
10230;SDS011;62604;49.432;8.680;2023-04-19T11:17:34;15.90;;;13.57;;
10230;SDS011;62604;49.432;8.680;2023-04-19T11:20:04;14.80;;;13.47;;
10230;SDS011;62604;49.432;8.680;2023-04-19T11:22:33;14.67;;;13.40;;
10230;SDS011;62604;49.432;8.680;2023-04-19T11:25:05;14.83;;;13.53;;
10230;SDS011;62604;49.432;8.680;2023-04-19T11:27:34;15.93;;;14.33;;
10230;SDS011;62604;49.432;8.680;2023-04-19T11:30:02;14.90;;;13.53;;
10230;SDS011;62604;49.432;8.680;2023-04-19T11:32:29;15.07;;;13.67;;
10230;SDS011;62604;49.432;8.680;2023-04-19T11:34:58;15.00;;;13.60;;
10230;SDS011;62604;49.432;8.680;2023-04-19T11:37:31;14.90;;;13.50;;
10230;SDS011;62604;49.432;8.680;2023-04-19T11:39:58;14.27;;;12.97;;
10230;SDS011;62604;49.432;8.680;2023-04-19T11:42:25;15.33;;;13.93;;
10230;SDS011;62604;49.432;8.680;2023-04-19T11:44:53;13.73;;;12.63;;
10230;SDS011;62604;49.432;8.680;2023-04-19T11:47:21;13.70;;;12.65;;
10230;SDS011;62604;49.432;8.680;2023-04-19T11:49:48;13.70;;;12.60;;
10230;SDS011;62604;49.432;8.680;2023-04-19T11:52:21;13.75;;;12.65;;
10230;SDS011;62604;49.432;8.680;2023-04-19T11:54:49;13.27;;;12.30;;
10230;SDS011;62604;49.432;8.680;2023-04-19T11:57:25;14.02;;;12.93;;
10230;SDS011;62604;49.432;8.680;2023-04-19T12:00:03;14.32;;;12.90;;
10230;SDS011;62604;49.432;8.680;2023-04-19T12:02:36;13.95;;;12.85;;
10230;SDS011;62604;49.432;8.680;2023-04-19T12:05:07;13.10;;;12.20;;
10230;SDS011;62604;49.432;8.680;2023-04-19T12:10:25;13.68;;;12.57;;
10230;SDS011;62604;49.432;8.680;2023-04-19T12:12:52;13.20;;;12.20;;
10230;SDS011;62604;49.432;8.680;2023-04-19T12:15:19;13.38;;;12.30;;
10230;SDS011;62604;49.432;8.680;2023-04-19T12:17:57;13.18;;;12.07;;
10230;SDS011;62604;49.432;8.680;2023-04-19T12:20:29;13.50;;;12.50;;
10230;SDS011;62604;49.432;8.680;2023-04-19T12:22:57;13.57;;;12.50;;
10230;SDS011;62604;49.432;8.680;2023-04-19T12:25:28;13.43;;;12.43;;
10230;SDS011;62604;49.432;8.680;2023-04-19T12:27:56;13.43;;;12.43;;
10230;SDS011;62604;49.432;8.680;2023-04-19T12:30:23;12.70;;;11.70;;
10230;SDS011;62604;49.432;8.680;2023-04-19T12:32:50;13.23;;;12.15;;
10230;SDS011;62604;49.432;8.680;2023-04-19T12:35:19;13.32;;;12.23;;
10230;SDS011;62604;49.432;8.680;2023-04-19T12:37:47;13.50;;;12.50;;
10230;SDS011;62604;49.432;8.680;2023-04-19T12:40:15;13.00;;;12.10;;
10230;SDS011;62604;49.432;8.680;2023-04-19T12:42:42;13.05;;;12.02;;
10230;SDS011;62604;49.432;8.680;2023-04-19T12:45:09;13.43;;;12.43;;
10230;SDS011;62604;49.432;8.680;2023-04-19T12:47:37;13.70;;;12.70;;
10230;SDS011;62604;49.432;8.680;2023-04-19T12:50:05;13.20;;;12.30;;
10230;SDS011;62604;49.432;8.680;2023-04-19T12:52:33;13.52;;;12.57;;
10230;SDS011;62604;49.432;8.680;2023-04-19T12:55:00;12.95;;;12.05;;
10230;SDS011;62604;49.432;8.680;2023-04-19T12:57:29;12.68;;;11.77;;
10230;SDS011;62604;49.432;8.680;2023-04-19T12:59:56;13.48;;;12.30;;
10230;SDS011;62604;49.432;8.680;2023-04-19T13:02:23;13.00;;;12.10;;
10230;SDS011;62604;49.432;8.680;2023-04-19T13:04:50;12.75;;;11.77;;
10230;SDS011;62604;49.432;8.680;2023-04-19T13:07:17;13.68;;;12.57;;
10230;SDS011;62604;49.432;8.680;2023-04-19T13:09:44;13.40;;;12.50;;
10230;SDS011;62604;49.432;8.680;2023-04-19T13:12:10;13.38;;;12.38;;
10230;SDS011;62604;49.432;8.680;2023-04-19T13:14:39;11.02;;;10.32;;
10230;SDS011;62604;49.432;8.680;2023-04-19T13:17:06;13.55;;;12.48;;
10230;SDS011;62604;49.432;8.680;2023-04-19T13:19:33;13.00;;;12.10;;
10230;SDS011;62604;49.432;8.680;2023-04-19T13:22:00;13.15;;;12.23;;
10230;SDS011;62604;49.432;8.680;2023-04-19T13:24:27;14.10;;;12.88;;
10230;SDS011;62604;49.432;8.680;2023-04-19T13:26:53;13.68;;;12.68;;
10230;SDS011;62604;49.432;8.680;2023-04-19T13:29:20;14.05;;;12.95;;
10230;SDS011;62604;49.432;8.680;2023-04-19T13:31:49;13.93;;;12.77;;
10230;SDS011;62604;49.432;8.680;2023-04-19T13:34:15;13.85;;;12.75;;
10230;SDS011;62604;49.432;8.680;2023-04-19T13:36:42;13.50;;;12.45;;
10230;SDS011;62604;49.432;8.680;2023-04-19T13:39:09;13.50;;;12.50;;
10230;SDS011;62604;49.432;8.680;2023-04-19T13:41:36;13.68;;;12.60;;
10230;SDS011;62604;49.432;8.680;2023-04-19T13:44:03;14.30;;;13.00;;
10230;SDS011;62604;49.432;8.680;2023-04-19T13:46:30;13.73;;;12.70;;
10230;SDS011;62604;49.432;8.680;2023-04-19T13:49:00;13.18;;;12.07;;
10230;SDS011;62604;49.432;8.680;2023-04-19T13:51:27;13.48;;;12.45;;
10230;SDS011;62604;49.432;8.680;2023-04-19T13:53:55;14.20;;;13.00;;
10230;SDS011;62604;49.432;8.680;2023-04-19T13:56:22;13.85;;;12.75;;
10230;SDS011;62604;49.432;8.680;2023-04-19T13:58:49;13.48;;;12.48;;
10230;SDS011;62604;49.432;8.680;2023-04-19T14:01:16;13.30;;;12.30;;
10230;SDS011;62604;49.432;8.680;2023-04-19T14:03:43;14.77;;;13.38;;
10230;SDS011;62604;49.432;8.680;2023-04-19T14:06:12;13.82;;;12.50;;
10230;SDS011;62604;49.432;8.680;2023-04-19T14:08:39;14.90;;;13.50;;
10230;SDS011;62604;49.432;8.680;2023-04-19T14:11:06;14.52;;;12.20;;
10230;SDS011;62604;49.432;8.680;2023-04-19T14:13:33;13.73;;;12.52;;
10230;SDS011;62604;49.432;8.680;2023-04-19T14:16:00;13.73;;;12.43;;
10230;SDS011;62604;49.432;8.680;2023-04-19T14:18:26;13.67;;;12.47;;
10230;SDS011;62604;49.432;8.680;2023-04-19T14:20:53;14.33;;;13.03;;
10230;SDS011;62604;49.432;8.680;2023-04-19T14:23:21;14.53;;;13.23;;
10230;SDS011;62604;49.432;8.680;2023-04-19T14:25:48;14.50;;;13.30;;
10230;SDS011;62604;49.432;8.680;2023-04-19T14:28:15;15.53;;;14.07;;
10230;SDS011;62604;49.432;8.680;2023-04-19T14:30:42;14.40;;;13.30;;
10230;SDS011;62604;49.432;8.680;2023-04-19T14:33:09;14.97;;;13.83;;
10230;SDS011;62604;49.432;8.680;2023-04-19T14:35:36;14.67;;;13.37;;
10230;SDS011;62604;49.432;8.680;2023-04-19T14:38:03;13.33;;;12.30;;
10230;SDS011;62604;49.432;8.680;2023-04-19T14:40:31;13.50;;;12.47;;
10230;SDS011;62604;49.432;8.680;2023-04-19T14:42:58;13.23;;;12.13;;
10230;SDS011;62604;49.432;8.680;2023-04-19T14:45:25;12.97;;;12.03;;
10230;SDS011;62604;49.432;8.680;2023-04-19T14:47:52;12.90;;;11.90;;
10230;SDS011;62604;49.432;8.680;2023-04-19T14:50:19;13.40;;;12.30;;
10230;SDS011;62604;49.432;8.680;2023-04-19T14:52:46;12.60;;;11.70;;
10230;SDS011;62604;49.432;8.680;2023-04-19T14:55:13;12.67;;;11.77;;
10230;SDS011;62604;49.432;8.680;2023-04-19T14:57:41;12.70;;;11.80;;
10230;SDS011;62604;49.432;8.680;2023-04-19T15:00:09;12.80;;;11.87;;
10230;SDS011;62604;49.432;8.680;2023-04-19T15:02:37;12.40;;;11.60;;
10230;SDS011;62604;49.432;8.680;2023-04-19T15:05:05;12.90;;;11.90;;
10230;SDS011;62604;49.432;8.680;2023-04-19T15:07:32;12.70;;;11.80;;
10230;SDS011;62604;49.432;8.680;2023-04-19T15:09:59;12.23;;;11.33;;
10230;SDS011;62604;49.432;8.680;2023-04-19T15:12:26;12.43;;;11.47;;
10230;SDS011;62604;49.432;8.680;2023-04-19T15:14:54;12.80;;;11.90;;
10230;SDS011;62604;49.432;8.680;2023-04-19T15:17:21;12.83;;;11.83;;
10230;SDS011;62604;49.432;8.680;2023-04-19T15:19:48;13.40;;;12.30;;
10230;SDS011;62604;49.432;8.680;2023-04-19T15:22:15;13.07;;;12.10;;
10230;SDS011;62604;49.432;8.680;2023-04-19T15:24:42;13.03;;;11.83;;
10230;SDS011;62604;49.432;8.680;2023-04-19T15:27:09;12.87;;;11.97;;
10230;SDS011;62604;49.432;8.680;2023-04-19T15:29:36;13.27;;;12.27;;
10230;SDS011;62604;49.432;8.680;2023-04-19T15:32:05;12.33;;;11.53;;
10230;SDS011;62604;49.432;8.680;2023-04-19T15:34:32;11.90;;;11.10;;
10230;SDS011;62604;49.432;8.680;2023-04-19T15:36:59;12.10;;;11.10;;
10230;SDS011;62604;49.432;8.680;2023-04-19T15:39:29;11.50;;;10.80;;
10230;SDS011;62604;49.432;8.680;2023-04-19T15:41:56;11.53;;;10.77;;
10230;SDS011;62604;49.432;8.680;2023-04-19T15:44:23;11.47;;;10.77;;
10230;SDS011;62604;49.432;8.680;2023-04-19T15:46:50;11.43;;;10.63;;
10230;SDS011;62604;49.432;8.680;2023-04-19T15:49:19;11.57;;;10.87;;
10230;SDS011;62604;49.432;8.680;2023-04-19T15:51:46;11.30;;;10.60;;
10230;SDS011;62604;49.432;8.680;2023-04-19T15:54:13;11.37;;;10.63;;
10230;SDS011;62604;49.432;8.680;2023-04-19T15:56:40;11.50;;;10.70;;
10230;SDS011;62604;49.432;8.680;2023-04-19T15:59:07;11.63;;;10.83;;
10230;SDS011;62604;49.432;8.680;2023-04-19T16:01:34;11.33;;;10.53;;
10230;SDS011;62604;49.432;8.680;2023-04-19T16:04:01;11.53;;;10.73;;
10230;SDS011;62604;49.432;8.680;2023-04-19T16:06:29;11.37;;;10.60;;
10230;SDS011;62604;49.432;8.680;2023-04-19T16:08:56;11.27;;;10.57;;
10230;SDS011;62604;49.432;8.680;2023-04-19T16:11:23;11.33;;;10.63;;
10230;SDS011;62604;49.432;8.680;2023-04-19T16:13:50;11.47;;;10.67;;
10230;SDS011;62604;49.432;8.680;2023-04-19T16:16:17;11.50;;;10.80;;
10230;SDS011;62604;49.432;8.680;2023-04-19T16:18:44;10.90;;;10.20;;
10230;SDS011;62604;49.432;8.680;2023-04-19T16:21:11;11.40;;;10.70;;
10230;SDS011;62604;49.432;8.680;2023-04-19T16:23:39;11.20;;;10.50;;
10230;SDS011;62604;49.432;8.680;2023-04-19T16:26:06;11.53;;;10.77;;
10230;SDS011;62604;49.432;8.680;2023-04-19T16:28:33;11.17;;;10.47;;
10230;SDS011;62604;49.432;8.680;2023-04-19T16:31:02;11.30;;;10.53;;
10230;SDS011;62604;49.432;8.680;2023-04-19T16:33:31;11.47;;;10.60;;
10230;SDS011;62604;49.432;8.680;2023-04-19T16:35:57;11.03;;;10.33;;
10230;SDS011;62604;49.432;8.680;2023-04-19T16:38:24;11.13;;;10.43;;
10230;SDS011;62604;49.432;8.680;2023-04-19T16:40:53;11.33;;;10.57;;
10230;SDS011;62604;49.432;8.680;2023-04-19T16:43:20;11.60;;;10.80;;
10230;SDS011;62604;49.432;8.680;2023-04-19T16:45:47;11.67;;;10.80;;
10230;SDS011;62604;49.432;8.680;2023-04-19T16:48:14;11.40;;;10.60;;
10230;SDS011;62604;49.432;8.680;2023-04-19T16:50:41;11.57;;;10.77;;
10230;SDS011;62604;49.432;8.680;2023-04-19T16:53:10;11.40;;;10.70;;
10230;SDS011;62604;49.432;8.680;2023-04-19T16:55:37;11.23;;;10.53;;
10230;SDS011;62604;49.432;8.680;2023-04-19T16:58:05;11.30;;;10.60;;
10230;SDS011;62604;49.432;8.680;2023-04-19T17:00:32;11.47;;;10.67;;
10230;SDS011;62604;49.432;8.680;2023-04-19T17:02:59;11.00;;;10.20;;
10230;SDS011;62604;49.432;8.680;2023-04-19T17:05:26;11.10;;;10.40;;
10230;SDS011;62604;49.432;8.680;2023-04-19T17:07:52;11.30;;;10.60;;
10230;SDS011;62604;49.432;8.680;2023-04-19T17:10:20;11.00;;;10.30;;
10230;SDS011;62604;49.432;8.680;2023-04-19T17:12:47;11.30;;;10.60;;
10230;SDS011;62604;49.432;8.680;2023-04-19T17:15:16;13.00;;;10.93;;
10230;SDS011;62604;49.432;8.680;2023-04-19T17:17:44;11.27;;;10.47;;
10230;SDS011;62604;49.432;8.680;2023-04-19T17:20:10;12.03;;;10.97;;
10230;SDS011;62604;49.432;8.680;2023-04-19T17:22:39;12.00;;;11.10;;
10230;SDS011;62604;49.432;8.680;2023-04-19T17:25:06;11.47;;;10.77;;
10230;SDS011;62604;49.432;8.680;2023-04-19T17:27:33;11.47;;;10.67;;
10230;SDS011;62604;49.432;8.680;2023-04-19T17:30:00;11.50;;;10.70;;
10230;SDS011;62604;49.432;8.680;2023-04-19T17:32:29;11.57;;;10.77;;
10230;SDS011;62604;49.432;8.680;2023-04-19T17:34:57;11.40;;;10.60;;
10230;SDS011;62604;49.432;8.680;2023-04-19T17:37:24;11.23;;;10.53;;
10230;SDS011;62604;49.432;8.680;2023-04-19T17:39:51;11.33;;;10.50;;
10230;SDS011;62604;49.432;8.680;2023-04-19T17:42:18;11.03;;;10.33;;
10230;SDS011;62604;49.432;8.680;2023-04-19T17:44:44;11.40;;;10.70;;
10230;SDS011;62604;49.432;8.680;2023-04-19T17:47:12;11.80;;;11.00;;
10230;SDS011;62604;49.432;8.680;2023-04-19T17:49:43;11.60;;;10.80;;
10230;SDS011;62604;49.432;8.680;2023-04-19T17:52:10;13.40;;;10.90;;
10230;SDS011;62604;49.432;8.680;2023-04-19T17:54:37;11.60;;;10.70;;
10230;SDS011;62604;49.432;8.680;2023-04-19T17:57:04;11.70;;;10.90;;
10230;SDS011;62604;49.432;8.680;2023-04-19T17:59:31;10.83;;;10.13;;
10230;SDS011;62604;49.432;8.680;2023-04-19T18:01:58;11.73;;;10.93;;
10230;SDS011;62604;49.432;8.680;2023-04-19T18:04:25;11.40;;;10.60;;
10230;SDS011;62604;49.432;8.680;2023-04-19T18:06:53;10.70;;;10.00;;
10230;SDS011;62604;49.432;8.680;2023-04-19T18:09:20;11.60;;;10.80;;
10230;SDS011;62604;49.432;8.680;2023-04-19T18:11:47;11.10;;;10.30;;
10230;SDS011;62604;49.432;8.680;2023-04-19T18:14:14;11.10;;;10.30;;
10230;SDS011;62604;49.432;8.680;2023-04-19T18:16:41;11.30;;;10.60;;
10230;SDS011;62604;49.432;8.680;2023-04-19T18:19:08;10.63;;;9.93;;
10230;SDS011;62604;49.432;8.680;2023-04-19T18:21:35;11.37;;;10.60;;
10230;SDS011;62604;49.432;8.680;2023-04-19T18:24:04;11.67;;;10.87;;
10230;SDS011;62604;49.432;8.680;2023-04-19T18:26:35;11.57;;;10.87;;
10230;SDS011;62604;49.432;8.680;2023-04-19T18:29:03;11.90;;;11.00;;
10230;SDS011;62604;49.432;8.680;2023-04-19T18:31:30;11.60;;;10.80;;
10230;SDS011;62604;49.432;8.680;2023-04-19T18:33:57;11.80;;;11.00;;
10230;SDS011;62604;49.432;8.680;2023-04-19T18:36:24;11.93;;;11.10;;
10230;SDS011;62604;49.432;8.680;2023-04-19T18:38:52;11.70;;;10.90;;
10230;SDS011;62604;49.432;8.680;2023-04-19T18:41:20;11.70;;;10.90;;
10230;SDS011;62604;49.432;8.680;2023-04-19T18:43:47;11.60;;;10.80;;
10230;SDS011;62604;49.432;8.680;2023-04-19T18:46:14;10.90;;;10.20;;
10230;SDS011;62604;49.432;8.680;2023-04-19T18:48:41;11.50;;;10.70;;
10230;SDS011;62604;49.432;8.680;2023-04-19T18:51:08;11.10;;;10.40;;
10230;SDS011;62604;49.432;8.680;2023-04-19T18:53:35;11.10;;;10.40;;
10230;SDS011;62604;49.432;8.680;2023-04-19T18:56:03;11.50;;;10.70;;
10230;SDS011;62604;49.432;8.680;2023-04-19T18:58:31;11.43;;;10.63;;
10230;SDS011;62604;49.432;8.680;2023-04-19T19:00:58;11.20;;;10.50;;
10230;SDS011;62604;49.432;8.680;2023-04-19T19:03:25;11.63;;;10.83;;
10230;SDS011;62604;49.432;8.680;2023-04-19T19:05:52;12.03;;;11.13;;
10230;SDS011;62604;49.432;8.680;2023-04-19T19:08:20;11.70;;;10.90;;
10230;SDS011;62604;49.432;8.680;2023-04-19T19:10:47;11.53;;;10.73;;
10230;SDS011;62604;49.432;8.680;2023-04-19T19:13:14;11.70;;;10.90;;
10230;SDS011;62604;49.432;8.680;2023-04-19T19:15:42;13.33;;;10.87;;
10230;SDS011;62604;49.432;8.680;2023-04-19T19:18:09;11.17;;;10.43;;
10230;SDS011;62604;49.432;8.680;2023-04-19T19:20:36;11.90;;;11.00;;
10230;SDS011;62604;49.432;8.680;2023-04-19T19:23:03;11.47;;;10.70;;
10230;SDS011;62604;49.432;8.680;2023-04-19T19:25:30;12.00;;;11.00;;
10230;SDS011;62604;49.432;8.680;2023-04-19T19:27:57;11.30;;;10.60;;
10230;SDS011;62604;49.432;8.680;2023-04-19T19:30:24;9.70;;;9.00;;
10230;SDS011;62604;49.432;8.680;2023-04-19T19:32:55;9.73;;;9.03;;
10230;SDS011;62604;49.432;8.680;2023-04-19T19:35:21;11.10;;;10.30;;
10230;SDS011;62604;49.432;8.680;2023-04-19T19:37:48;11.87;;;10.97;;
10230;SDS011;62604;49.432;8.680;2023-04-19T19:40:15;11.60;;;10.77;;
10230;SDS011;62604;49.432;8.680;2023-04-19T19:42:44;12.20;;;11.20;;
10230;SDS011;62604;49.432;8.680;2023-04-19T19:45:11;12.07;;;11.00;;
10230;SDS011;62604;49.432;8.680;2023-04-19T19:47:38;11.60;;;10.80;;
10230;SDS011;62604;49.432;8.680;2023-04-19T19:50:07;11.57;;;10.77;;
10230;SDS011;62604;49.432;8.680;2023-04-19T19:52:35;9.93;;;9.30;;
10230;SDS011;62604;49.432;8.680;2023-04-19T19:55:02;12.13;;;11.23;;
10230;SDS011;62604;49.432;8.680;2023-04-19T19:57:29;9.33;;;8.73;;
10230;SDS011;62604;49.432;8.680;2023-04-19T19:59:56;9.17;;;8.33;;
10230;SDS011;62604;49.432;8.680;2023-04-19T20:02:23;11.07;;;10.27;;
10230;SDS011;62604;49.432;8.680;2023-04-19T20:04:51;11.53;;;10.73;;
10230;SDS011;62604;49.432;8.680;2023-04-19T20:07:19;11.10;;;10.40;;
10230;SDS011;62604;49.432;8.680;2023-04-19T20:09:48;11.60;;;10.77;;
10230;SDS011;62604;49.432;8.680;2023-04-19T20:12:16;11.50;;;10.70;;
10230;SDS011;62604;49.432;8.680;2023-04-19T20:14:43;11.20;;;10.50;;
10230;SDS011;62604;49.432;8.680;2023-04-19T20:17:10;11.40;;;10.67;;
10230;SDS011;62604;49.432;8.680;2023-04-19T20:19:37;11.00;;;10.30;;
10230;SDS011;62604;49.432;8.680;2023-04-19T20:22:04;11.13;;;10.37;;
10230;SDS011;62604;49.432;8.680;2023-04-19T20:24:32;11.30;;;10.60;;
10230;SDS011;62604;49.432;8.680;2023-04-19T20:26:59;10.70;;;9.80;;
10230;SDS011;62604;49.432;8.680;2023-04-19T20:29:26;11.27;;;10.47;;
10230;SDS011;62604;49.432;8.680;2023-04-19T20:31:53;10.53;;;9.87;;
10230;SDS011;62604;49.432;8.680;2023-04-19T20:34:20;10.90;;;10.10;;
10230;SDS011;62604;49.432;8.680;2023-04-19T20:36:47;11.10;;;10.40;;
10230;SDS011;62604;49.432;8.680;2023-04-19T20:39:13;10.80;;;10.10;;
10230;SDS011;62604;49.432;8.680;2023-04-19T20:41:44;11.13;;;10.33;;
10230;SDS011;62604;49.432;8.680;2023-04-19T20:44:12;11.50;;;10.60;;
10230;SDS011;62604;49.432;8.680;2023-04-19T20:46:40;10.80;;;10.10;;